createdAt,value
2022-12-08T00:01:32.828Z,9.52
2022-12-08T00:04:03.173Z,9.93
2022-12-08T00:06:53.178Z,11.05
2022-12-08T00:09:39.194Z,8.18
2022-12-08T00:12:15.201Z,8.10
2022-12-08T00:14:44.543Z,10.18
2022-12-08T00:17:13.881Z,12.27
2022-12-08T00:19:41.579Z,10.43
2022-12-08T00:22:11.569Z,10.63
2022-12-08T00:24:42.097Z,11.15
2022-12-08T00:27:17.972Z,15.27
2022-12-08T00:29:50.943Z,7.93
2022-12-08T00:32:22.083Z,10.65
2022-12-08T00:34:56.552Z,10.18
2022-12-08T00:37:26.782Z,11.07
2022-12-08T00:40:04.438Z,14.00
2022-12-08T00:42:35.729Z,14.73
2022-12-08T00:45:05.637Z,10.60
2022-12-08T00:47:34.859Z,9.98
2022-12-08T00:50:10.787Z,11.98
2022-12-08T00:52:51.915Z,11.73
2022-12-08T00:55:18.911Z,9.90
2022-12-08T00:57:45.970Z,10.70
2022-12-08T01:00:15.123Z,7.90
2022-12-08T01:02:48.298Z,8.50
2022-12-08T01:05:15.296Z,10.48
2022-12-08T01:07:49.420Z,9.43
2022-12-08T01:10:16.872Z,10.10
2022-12-08T01:15:14.630Z,7.70
2022-12-08T01:17:46.379Z,9.25
2022-12-08T01:20:14.073Z,10.40
2022-12-08T01:22:44.651Z,13.57
2022-12-08T01:25:11.289Z,5.15
2022-12-08T01:27:39.669Z,10.30
2022-12-08T01:30:07.303Z,7.97
2022-12-08T01:32:41.670Z,12.48
2022-12-08T01:35:08.981Z,7.75
2022-12-08T01:37:40.963Z,8.07
2022-12-08T01:40:11.679Z,10.60
2022-12-08T01:42:41.197Z,11.13
2022-12-08T01:45:17.701Z,8.60
2022-12-08T01:47:52.519Z,8.48
2022-12-08T01:50:22.035Z,9.88
2022-12-08T01:53:12.246Z,9.38
2022-12-08T01:55:43.715Z,10.13
2022-12-08T01:58:47.387Z,8.98
2022-12-08T02:01:17.119Z,9.32
2022-12-08T02:04:02.136Z,12.52
2022-12-08T02:06:36.125Z,9.00
2022-12-08T02:09:08.432Z,8.82
2022-12-08T02:11:40.898Z,9.00
2022-12-08T02:14:13.957Z,8.75
2022-12-08T02:17:13.900Z,9.68
2022-12-08T02:19:52.760Z,10.27
2022-12-08T02:22:36.946Z,13.25
2022-12-08T02:25:44.272Z,12.15
2022-12-08T02:28:55.589Z,10.82
2022-12-08T02:31:58.448Z,7.40
2022-12-08T02:34:41.090Z,9.00
2022-12-08T02:37:22.648Z,10.18
2022-12-08T02:40:00.037Z,8.38
2022-12-08T02:42:51.396Z,7.07
2022-12-08T02:45:46.195Z,8.15
2022-12-08T02:48:14.706Z,13.30
2022-12-08T02:50:42.674Z,10.32
2022-12-08T02:56:06.668Z,9.73
2022-12-08T02:58:45.858Z,9.77
2022-12-08T03:01:46.927Z,8.90
2022-12-08T03:04:30.786Z,8.77
2022-12-08T03:07:14.523Z,7.20
2022-12-08T03:10:03.405Z,10.55
2022-12-08T03:12:44.144Z,10.57
2022-12-08T03:15:15.309Z,8.40
2022-12-08T03:17:49.039Z,11.85
2022-12-08T03:20:20.670Z,6.50
2022-12-08T03:22:50.565Z,9.90
2022-12-08T03:25:21.910Z,11.57
2022-12-08T03:27:50.435Z,7.78
2022-12-08T03:30:17.327Z,11.35
2022-12-08T03:32:52.442Z,6.45
2022-12-08T03:35:29.565Z,9.95
2022-12-08T03:38:08.745Z,5.50
2022-12-08T03:40:35.209Z,4.95
2022-12-08T03:43:01.645Z,6.43
2022-12-08T03:45:28.382Z,9.48
2022-12-08T03:47:54.966Z,6.32
2022-12-08T03:50:21.554Z,6.53
2022-12-08T03:52:48.060Z,6.88
2022-12-08T03:55:14.644Z,7.43
2022-12-08T03:57:41.559Z,9.27
2022-12-08T04:00:13.528Z,10.55
2022-12-08T04:02:40.013Z,10.18
2022-12-08T04:05:06.792Z,6.72
2022-12-08T04:07:33.237Z,7.50
2022-12-08T04:09:59.736Z,9.18
2022-12-08T04:12:26.167Z,10.30
2022-12-08T04:14:52.547Z,5.63
2022-12-08T04:17:18.978Z,5.20
2022-12-08T04:19:45.382Z,4.43
2022-12-08T04:22:11.764Z,7.10
2022-12-08T04:24:38.204Z,4.72
2022-12-08T04:27:04.709Z,6.20
2022-12-08T04:29:31.098Z,4.15
2022-12-08T04:31:57.610Z,3.97
2022-12-08T04:34:24.222Z,3.30
2022-12-08T04:36:50.659Z,5.97
2022-12-08T04:39:17.169Z,4.63
2022-12-08T04:41:43.582Z,5.45
2022-12-08T04:44:09.990Z,3.58
2022-12-08T04:46:41.679Z,3.95
2022-12-08T04:49:09.666Z,5.28
2022-12-08T04:51:36.149Z,4.30
2022-12-08T04:54:02.529Z,3.83
2022-12-08T04:56:28.949Z,2.35
2022-12-08T04:58:55.403Z,5.60
2022-12-08T05:01:21.906Z,2.70
2022-12-08T05:03:48.347Z,5.15
2022-12-08T05:06:14.967Z,3.58
2022-12-08T05:08:42.951Z,2.85
2022-12-08T05:11:11.233Z,5.55
2022-12-08T05:13:37.821Z,2.80
2022-12-08T05:16:08.433Z,1.75
2022-12-08T05:18:35.537Z,2.28
2022-12-08T05:21:02.261Z,3.53
2022-12-08T05:23:28.793Z,4.55
2022-12-08T05:25:55.248Z,1.60
2022-12-08T05:31:08.445Z,2.78
2022-12-08T05:33:34.910Z,2.90
2022-12-08T05:36:01.354Z,2.45
2022-12-08T05:38:27.823Z,3.08
2022-12-08T05:40:54.212Z,2.55
2022-12-08T05:43:20.831Z,1.17
2022-12-08T05:45:47.292Z,1.20
2022-12-08T05:48:13.727Z,2.78
2022-12-08T05:50:40.126Z,1.80
2022-12-08T05:53:06.559Z,1.35
2022-12-08T05:55:33.060Z,2.80
2022-12-08T05:58:03.134Z,1.52
2022-12-08T06:00:34.797Z,2.15
2022-12-08T06:03:01.469Z,1.77
2022-12-08T06:05:28.008Z,2.20
2022-12-08T06:07:54.745Z,3.78
2022-12-08T06:10:21.250Z,3.10
2022-12-08T06:12:47.703Z,4.22
2022-12-08T06:15:14.153Z,4.68
2022-12-08T06:17:40.562Z,4.38
2022-12-08T06:20:07.831Z,5.65
2022-12-08T06:22:35.169Z,5.85
2022-12-08T06:25:03.248Z,4.50
2022-12-08T06:27:33.628Z,6.85
2022-12-08T06:30:00.147Z,4.30
2022-12-08T06:32:27.743Z,5.88
2022-12-08T06:34:54.281Z,5.72
2022-12-08T06:37:20.675Z,5.13
2022-12-08T06:39:47.102Z,6.15
2022-12-08T06:42:32.444Z,5.72
2022-12-08T06:44:59.834Z,5.97
2022-12-08T06:47:26.593Z,5.28
2022-12-08T06:49:53.106Z,6.35
2022-12-08T06:52:19.570Z,5.63
2022-12-08T06:54:46.168Z,3.97
2022-12-08T06:57:12.638Z,6.40
2022-12-08T06:59:39.760Z,7.38
2022-12-08T07:02:06.799Z,9.07
2022-12-08T07:04:33.227Z,5.40
2022-12-08T07:06:59.670Z,4.78
2022-12-08T07:09:26.107Z,8.00
2022-12-08T07:11:52.668Z,10.38
2022-12-08T07:14:23.539Z,7.70
2022-12-08T07:16:52.969Z,6.90
2022-12-08T07:19:19.673Z,7.40
2022-12-08T07:21:46.259Z,6.57
2022-12-08T07:24:12.975Z,6.32
2022-12-08T07:26:41.176Z,4.82
2022-12-08T07:29:07.818Z,5.50
2022-12-08T07:31:34.355Z,4.70
2022-12-08T07:34:00.899Z,5.75
2022-12-08T07:36:27.623Z,5.97
2022-12-08T07:38:54.227Z,9.55
2022-12-08T07:41:23.901Z,6.53
2022-12-08T07:43:50.985Z,10.40
2022-12-08T07:46:20.408Z,7.38
2022-12-08T07:48:47.659Z,6.28
2022-12-08T07:51:15.812Z,7.45
2022-12-08T07:53:53.385Z,6.65
2022-12-08T07:56:21.594Z,8.20
2022-12-08T07:58:47.998Z,7.90
2022-12-08T08:01:31.798Z,8.40
2022-12-08T08:04:04.413Z,7.70
2022-12-08T08:06:32.630Z,8.20
2022-12-08T08:08:59.047Z,7.60
2022-12-08T08:11:25.688Z,10.27
2022-12-08T08:13:53.069Z,11.45
2022-12-08T08:16:20.159Z,14.95
2022-12-08T08:18:50.797Z,13.25
2022-12-08T08:21:44.458Z,12.85
2022-12-08T08:24:05.952Z,15.95
2022-12-08T08:26:32.541Z,10.00
2022-12-08T08:28:59.064Z,8.93
2022-12-08T08:31:26.932Z,7.93
2022-12-08T08:33:54.194Z,10.20
2022-12-08T08:36:22.005Z,7.70
2022-12-08T08:38:48.541Z,8.95
2022-12-08T08:41:15.025Z,6.53
2022-12-08T08:43:41.523Z,9.50
2022-12-08T08:46:08.992Z,7.70
2022-12-08T08:48:36.199Z,9.20
2022-12-08T08:51:11.082Z,6.93
2022-12-08T08:53:38.097Z,7.00
2022-12-08T08:56:12.588Z,7.43
2022-12-08T08:58:39.600Z,6.35
2022-12-08T09:01:06.320Z,7.57
2022-12-08T09:03:33.065Z,6.55
2022-12-08T09:05:59.693Z,5.65
2022-12-08T09:08:26.785Z,7.18
2022-12-08T09:10:53.282Z,6.03
2022-12-08T09:13:19.758Z,6.38
2022-12-08T09:15:46.196Z,8.80
2022-12-08T09:18:12.734Z,4.55
2022-12-08T09:20:39.350Z,6.25
2022-12-08T09:23:05.856Z,7.63
2022-12-08T09:25:32.327Z,7.03
2022-12-08T09:27:58.765Z,8.35
2022-12-08T09:30:25.246Z,6.75
2022-12-08T09:32:51.700Z,8.65
2022-12-08T09:35:18.149Z,5.90
2022-12-08T09:37:44.689Z,5.97
2022-12-08T09:40:16.818Z,5.82
2022-12-08T09:42:47.455Z,8.80
2022-12-08T09:45:16.527Z,11.10
2022-12-08T09:47:48.902Z,9.90
2022-12-08T09:50:22.627Z,16.58
2022-12-08T09:53:14.052Z,8.32
2022-12-08T09:55:52.060Z,11.20
2022-12-08T09:58:25.498Z,8.95
2022-12-08T10:00:52.071Z,15.77
2022-12-08T10:03:19.136Z,7.03
2022-12-08T10:05:54.304Z,12.23
2022-12-08T10:08:29.235Z,6.60
2022-12-08T10:11:04.707Z,10.98
2022-12-08T10:14:00.112Z,18.33
2022-12-08T10:16:40.579Z,13.43
2022-12-08T10:19:22.748Z,7.50
2022-12-08T10:21:49.874Z,5.90
2022-12-08T10:24:32.267Z,5.97
2022-12-08T10:26:59.250Z,5.38
2022-12-08T10:29:25.762Z,15.18
2022-12-08T10:31:52.281Z,11.55
2022-12-08T10:34:25.207Z,6.07
2022-12-08T10:36:57.437Z,8.80
2022-12-08T10:39:37.628Z,14.50
2022-12-08T10:42:15.604Z,26.90
2022-12-08T10:44:57.298Z,12.02
2022-12-08T10:47:26.507Z,8.15
2022-12-08T10:50:09.342Z,5.50
2022-12-08T10:52:40.389Z,6.60
2022-12-08T10:55:21.373Z,4.78
2022-12-08T10:57:50.919Z,6.50
2022-12-08T11:00:20.756Z,5.15
2022-12-08T11:02:55.221Z,5.72
2022-12-08T11:05:23.249Z,7.55
2022-12-08T11:07:52.602Z,10.15
2022-12-08T11:10:21.432Z,7.97
2022-12-08T11:12:50.396Z,2.97
2022-12-08T11:15:18.139Z,4.10
2022-12-08T11:17:48.680Z,5.15
2022-12-08T11:20:23.440Z,3.22
2022-12-08T11:22:55.387Z,4.88
2022-12-08T11:25:26.811Z,6.13
2022-12-08T11:27:57.078Z,5.90
2022-12-08T11:30:26.139Z,3.20
2022-12-08T11:33:15.649Z,3.20
2022-12-08T11:35:45.581Z,4.78
2022-12-08T11:38:21.519Z,4.78
2022-12-08T11:40:53.248Z,4.40
2022-12-08T11:43:34.723Z,4.55
2022-12-08T11:46:32.381Z,5.63
2022-12-08T11:49:06.335Z,2.92
2022-12-08T11:51:37.988Z,3.70
2022-12-08T11:54:22.438Z,3.35
2022-12-08T11:56:53.786Z,2.90
2022-12-08T11:59:38.248Z,4.13
2022-12-08T12:02:06.165Z,19.58
2022-12-08T12:04:39.407Z,8.80
2022-12-08T12:07:30.275Z,6.25
2022-12-08T12:10:17.801Z,5.03
2022-12-08T12:13:05.636Z,5.68
2022-12-08T12:15:31.995Z,3.97
2022-12-08T12:18:16.710Z,7.13
2022-12-08T12:20:56.176Z,5.13
2022-12-08T12:23:34.874Z,7.50
2022-12-08T12:26:04.649Z,8.75
2022-12-08T12:28:42.919Z,5.97
2022-12-08T12:31:16.333Z,8.63
2022-12-08T12:33:45.605Z,3.95
2022-12-08T12:36:13.842Z,7.05
2022-12-08T12:39:01.621Z,5.45
2022-12-08T12:41:34.498Z,4.13
2022-12-08T12:44:13.054Z,4.70
2022-12-08T12:46:48.799Z,3.35
2022-12-08T12:49:43.611Z,3.90
2022-12-08T12:52:12.787Z,5.45
2022-12-08T12:55:02.221Z,5.97
2022-12-08T12:57:40.270Z,7.70
2022-12-08T13:00:19.922Z,9.80
2022-12-08T13:02:51.667Z,7.20
2022-12-08T13:05:27.528Z,14.77
2022-12-08T13:08:24.335Z,5.20
2022-12-08T13:11:05.819Z,4.28
2022-12-08T13:13:33.264Z,6.18
2022-12-08T13:16:18.529Z,5.22
2022-12-08T13:19:13.903Z,3.45
2022-12-08T13:21:41.003Z,7.03
2022-12-08T13:24:10.229Z,6.03
2022-12-08T13:27:04.723Z,3.35
2022-12-08T13:29:35.473Z,3.95
2022-12-08T13:32:04.106Z,4.53
2022-12-08T13:34:33.261Z,7.70
2022-12-08T13:37:08.712Z,3.58
2022-12-08T13:39:41.254Z,2.92
2022-12-08T13:42:44.861Z,10.20
2022-12-08T13:48:42.619Z,8.52
2022-12-08T13:53:22.411Z,3.90
2022-12-08T13:57:08.482Z,3.60
2022-12-08T13:59:43.918Z,2.97
2022-12-08T14:02:26.285Z,11.05
2022-12-08T14:05:23.569Z,5.63
2022-12-08T14:07:42.068Z,8.18
2022-12-08T14:10:14.105Z,15.18
2022-12-08T14:12:44.595Z,12.25
2022-12-08T14:15:14.308Z,13.75
2022-12-08T14:17:41.658Z,3.70
2022-12-08T14:20:22.362Z,2.25
2022-12-08T14:22:50.340Z,4.43
2022-12-08T14:25:18.643Z,3.28
2022-12-08T14:27:46.447Z,3.33
2022-12-08T14:30:15.990Z,3.38
2022-12-08T14:32:54.846Z,2.65
2022-12-08T14:35:25.936Z,3.72
2022-12-08T14:37:58.956Z,3.40
2022-12-08T14:40:32.547Z,3.17
2022-12-08T14:43:15.108Z,4.25
2022-12-08T14:45:41.485Z,4.72
2022-12-08T14:48:36.352Z,2.15
2022-12-08T14:51:05.945Z,5.38
2022-12-08T14:53:46.348Z,3.22
2022-12-08T14:56:37.379Z,3.35
2022-12-08T14:59:17.881Z,7.90
2022-12-08T15:01:45.969Z,2.75
2022-12-08T15:04:20.144Z,3.47
2022-12-08T15:07:07.356Z,2.67
2022-12-08T15:09:42.746Z,5.45
2022-12-08T15:12:12.197Z,5.07
2022-12-08T15:14:44.039Z,18.30
2022-12-08T15:17:32.020Z,12.15
2022-12-08T15:20:00.632Z,12.15
2022-12-08T15:22:29.267Z,21.13
2022-12-08T15:24:56.484Z,7.68
2022-12-08T15:27:25.063Z,6.20
2022-12-08T15:32:20.927Z,5.43
2022-12-08T15:34:47.744Z,6.68
2022-12-08T15:37:21.947Z,11.10
2022-12-08T15:39:49.106Z,33.67
2022-12-08T15:42:15.893Z,24.25
2022-12-08T15:44:42.736Z,13.35
2022-12-08T15:47:23.560Z,4.57
2022-12-08T15:49:52.421Z,4.03
2022-12-08T15:52:21.731Z,3.05
2022-12-08T15:54:49.072Z,3.28
2022-12-08T15:57:53.410Z,6.03
2022-12-08T16:09:12.726Z,4.32
2022-12-08T16:12:06.573Z,3.70
2022-12-08T16:17:21.692Z,4.50
2022-12-08T16:19:49.410Z,4.45
2022-12-08T16:25:20.672Z,4.30
2022-12-08T16:28:29.366Z,4.78
2022-12-08T16:30:37.229Z,6.38
2022-12-08T16:33:03.940Z,8.70
2022-12-08T16:35:30.767Z,7.00
2022-12-08T16:37:57.934Z,4.72
2022-12-08T16:40:24.572Z,5.40
2022-12-08T16:42:51.051Z,6.80
2022-12-08T16:45:18.711Z,6.18
2022-12-08T16:47:48.870Z,7.07
2022-12-08T16:50:30.443Z,8.95
2022-12-08T16:53:03.123Z,6.80
2022-12-08T16:55:29.928Z,7.78
2022-12-08T16:57:56.672Z,5.80
2022-12-08T17:00:28.073Z,16.85
2022-12-08T17:02:55.335Z,17.30
2022-12-08T17:05:24.144Z,10.02
2022-12-08T17:07:53.093Z,11.48
2022-12-08T17:10:25.873Z,7.32
2022-12-08T17:12:53.256Z,6.05
2022-12-08T17:15:24.504Z,5.03
2022-12-08T17:17:52.134Z,6.65
2022-12-08T17:20:24.182Z,15.57
2022-12-08T17:22:53.931Z,14.07
2022-12-08T17:25:20.694Z,7.38
2022-12-08T17:27:47.113Z,8.68
2022-12-08T17:30:15.654Z,6.68
2022-12-08T17:32:43.169Z,5.95
2022-12-08T17:35:10.740Z,8.68
2022-12-08T17:37:37.365Z,8.47
2022-12-08T17:40:04.707Z,9.10
2022-12-08T17:42:31.504Z,9.07
2022-12-08T17:44:57.966Z,8.93
2022-12-08T17:47:24.602Z,11.68
2022-12-08T17:49:51.035Z,11.18
2022-12-08T17:52:17.558Z,9.85
2022-12-08T17:54:44.297Z,11.35
2022-12-08T17:57:10.715Z,13.05
2022-12-08T17:59:37.115Z,11.57
2022-12-08T18:02:04.466Z,13.65
2022-12-08T18:04:31.202Z,11.43
2022-12-08T18:07:00.152Z,11.98
2022-12-08T18:09:27.031Z,11.38
2022-12-08T18:11:53.665Z,13.63
2022-12-08T18:14:20.219Z,13.02
2022-12-08T18:16:47.592Z,15.40
2022-12-08T18:19:14.978Z,16.35
2022-12-08T18:21:42.111Z,11.75
2022-12-08T18:24:18.228Z,13.90
2022-12-08T18:26:45.455Z,16.42
2022-12-08T18:29:11.908Z,19.90
2022-12-08T18:31:38.376Z,22.55
2022-12-08T18:34:04.852Z,23.88
2022-12-08T18:36:31.313Z,49.33
2022-12-08T18:38:57.901Z,69.35
2022-12-08T18:41:25.868Z,29.35
2022-12-08T18:43:53.903Z,16.20
2022-12-08T18:46:20.953Z,15.60
2022-12-08T18:48:48.982Z,17.83
2022-12-08T18:51:18.568Z,18.02
2022-12-08T18:53:46.066Z,13.00
2022-12-08T18:56:27.830Z,14.25
2022-12-08T18:59:01.311Z,20.17
2022-12-08T19:01:30.013Z,14.07
2022-12-08T19:06:48.156Z,18.75
2022-12-08T19:09:15.756Z,19.88
2022-12-08T19:11:43.249Z,22.73
2022-12-08T19:14:10.799Z,33.47
2022-12-08T19:16:38.041Z,26.53
2022-12-08T19:19:04.988Z,20.63
2022-12-08T19:21:32.383Z,20.95
2022-12-08T19:23:59.813Z,21.42
2022-12-08T19:26:30.587Z,19.10
2022-12-08T19:28:57.721Z,20.20
2022-12-08T19:31:24.211Z,23.80
2022-12-08T19:33:50.818Z,21.30
2022-12-08T19:36:20.845Z,21.25
2022-12-08T19:39:06.537Z,21.08
2022-12-08T19:41:52.296Z,22.98
2022-12-08T19:44:39.830Z,20.52
2022-12-08T19:47:06.568Z,18.13
2022-12-08T19:49:33.188Z,19.80
2022-12-08T19:51:59.934Z,27.27
2022-12-08T19:54:26.530Z,26.23
2022-12-08T19:56:53.968Z,28.90
2022-12-08T19:59:20.527Z,26.73
2022-12-08T20:01:48.325Z,22.45
2022-12-08T20:04:16.421Z,23.40
2022-12-08T20:06:43.914Z,32.03
2022-12-08T20:09:11.026Z,22.05
2022-12-08T20:11:38.144Z,17.48
2022-12-08T20:14:05.110Z,20.88
2022-12-08T20:16:32.290Z,20.10
2022-12-08T20:18:58.948Z,19.55
2022-12-08T20:21:25.492Z,20.80
2022-12-08T20:23:52.050Z,22.88
2022-12-08T20:26:20.816Z,21.58
2022-12-08T20:28:47.615Z,23.30
2022-12-08T20:31:25.340Z,23.38
2022-12-08T20:33:52.450Z,25.20
2022-12-08T20:36:20.657Z,24.25
2022-12-08T20:38:51.918Z,24.42
2022-12-08T20:41:19.247Z,23.48
2022-12-08T20:43:47.240Z,23.33
2022-12-08T20:46:16.641Z,27.52
2022-12-08T20:48:44.320Z,27.67
2022-12-08T20:51:18.817Z,24.97
2022-12-08T20:53:45.813Z,24.30
2022-12-08T20:56:18.007Z,25.00
2022-12-08T20:58:45.423Z,23.67
2022-12-08T21:01:14.950Z,23.75
2022-12-08T21:03:42.806Z,23.95
2022-12-08T21:06:10.589Z,25.25
2022-12-08T21:11:07.689Z,25.23
2022-12-08T21:13:37.024Z,24.90
2022-12-08T21:16:11.899Z,28.20
2022-12-08T21:18:46.657Z,23.60
2022-12-08T21:21:17.826Z,24.23
2022-12-08T21:23:45.914Z,25.38
2022-12-08T21:26:22.371Z,23.77
2022-12-08T21:28:50.643Z,24.73
2022-12-08T21:31:21.472Z,23.08
2022-12-08T21:33:48.879Z,26.65
2022-12-08T21:36:18.691Z,25.98
2022-12-08T21:38:50.983Z,26.75
2022-12-08T21:41:41.274Z,26.02
2022-12-08T21:44:09.998Z,28.05
2022-12-08T21:46:37.168Z,26.88
2022-12-08T21:49:04.767Z,27.58
2022-12-08T21:51:33.540Z,23.90
2022-12-08T21:54:00.353Z,25.48
2022-12-08T21:56:27.058Z,25.40
2022-12-08T21:58:59.567Z,26.42
2022-12-08T22:01:26.576Z,25.25
2022-12-08T22:04:17.084Z,25.67
2022-12-08T22:06:45.589Z,28.67
2022-12-08T22:09:21.013Z,24.05
2022-12-08T22:12:06.707Z,28.48
2022-12-08T22:14:40.384Z,27.00
2022-12-08T22:17:09.566Z,28.80
2022-12-08T22:19:36.460Z,26.58
2022-12-08T22:22:03.496Z,26.50
2022-12-08T22:24:31.371Z,29.92
2022-12-08T22:26:58.313Z,28.75
2022-12-08T22:29:24.888Z,25.20
2022-12-08T22:31:51.557Z,24.48
2022-12-08T22:34:18.143Z,24.95
2022-12-08T22:36:44.584Z,24.48
2022-12-08T22:39:12.132Z,26.70
2022-12-08T22:41:38.804Z,24.15
2022-12-08T22:44:06.553Z,24.95
2022-12-08T22:46:33.185Z,23.58
2022-12-08T22:48:59.934Z,24.55
2022-12-08T22:51:26.448Z,25.88
2022-12-08T22:53:53.085Z,34.45
2022-12-08T22:56:20.120Z,24.45
2022-12-08T22:58:46.605Z,24.35
2022-12-08T23:01:38.974Z,27.48
2022-12-08T23:04:05.636Z,24.77
2022-12-08T23:06:32.272Z,23.33
2022-12-08T23:08:59.207Z,23.30
2022-12-08T23:11:29.222Z,24.30
2022-12-08T23:13:57.208Z,24.42
2022-12-08T23:16:23.916Z,29.17
2022-12-08T23:18:50.487Z,27.42
2022-12-08T23:21:19.504Z,23.50
2022-12-08T23:23:46.660Z,26.42
2022-12-08T23:26:22.948Z,25.58
2022-12-08T23:28:50.131Z,30.55
2022-12-08T23:31:17.566Z,24.45
2022-12-08T23:33:44.304Z,24.63
2022-12-08T23:36:12.003Z,25.77
2022-12-08T23:38:38.637Z,29.23
2022-12-08T23:41:07.705Z,27.90
2022-12-08T23:43:49.978Z,27.10
2022-12-08T23:46:21.748Z,28.23
2022-12-08T23:48:58.831Z,24.42
2022-12-08T23:51:40.951Z,26.38
2022-12-08T23:54:23.160Z,27.65
2022-12-08T23:57:10.320Z,26.20
2022-12-08T23:59:46.015Z,26.23
